KMOB/MOB METAR and TAF weather

Enter ICAO airport designator
Station Type Date Time Source
KMOB METAR 2022/01/29 10:56 UTC NOAA

KMOB 291056Z AUTO 33007KT 10SM CLR M01/M13 A3032 RMK AO2 SLP266 T10111133


Station Type Date Time Source
KMOB Decoded METAR 2022/01/29 10:56 UTC NOAA

MOBILE REGIONAL AIRPORT, AL, United States (KMOB) 30-41N 88-14W 67M
Jan 29, 2022 - 05:56 AM EST / 2022.01.29 1056 UTC
Wind: from the NNW (330 degrees) at 8 MPH (7 KT):0
Visibility: 10 mile(s):0
Sky conditions: clear
Temperature: 30.0 F (-1.1 C)
Windchill: 23 F (-5 C):1
Dew Point: 8.1 F (-13.3 C)
Relative Humidity: 38%
Pressure (altimeter): 30.32 in. Hg (1026 hPa)
ob: KMOB 291056Z AUTO 33007KT 10SM CLR M01/M13 A3032 RMK AO2 SLP266 T10111133
cycle: 11

Station Type Date Time Source
KMOB TAF 2022/01/29 06:22 UTC NOAA

TAF KMOB 290520Z 2906/3006 33010KT P6SM FEW050 OVC150
FM300100 32005KT P6SM SKC

Example: see airport list